Aérodrome :
LOGIN :

S'inscrire | Disclaimer

   EN    FR    IT 

 










Légende :    VFR   VFR Marginal   IFR   IFR Intensif   IFR Très Intensif
Visi : 
Plafond : 
>= 8 km
>= 3000ft
5 à 8 km
1000 à 3000 ft
1500m à 5 km
500 à 1000 ft
800 à 1500m
200 à 500 ft
< 800m
< 200 ft
Symboles :   Orages  Brouillard  Fortes neiges  Fortes précipitations  Vent > 20 kt
SIGMETs :   Divers  Orages  Givrage  Turbulence  Onde Orograph.  Cendres Volcan.







- Altitude de l'aérodrome : 204 ft
- Code IATA : AGF
- Voir les cartes d'approche


LFBA - Agen

DERNIER METAR :
  • 170200Z AUTO 28007KT 240V310 9999 SCT031/// BKN039/// BKN062/// ///TCU 08/06 Q1023

METARs EXPIRÉS :
  • 170130Z AUTO 27006KT 230V290 CAVOK 07/05 Q1023
  • 170100Z AUTO 27006KT CAVOK 08/05 Q1022
  • 170030Z AUTO 26007KT 230V290 9999 ///TCU 08/06 Q1022
  • 170000Z AUTO 26010KT 9999 -RA FEW036/// BKN056/// BKN070/// ///CB 08/06 Q1022
  • 162330Z AUTO 26008KT 230V290 9999 ///TCU 08/06 Q1021

TAF TAF LFBA
Valide du 16 à 18h jusqu'au 17 à 03h UTC


161700Z 1618/1703 25010KT 9999 BKN030
PROB30
TEMPO 1618/1703 26015G25KT 1500 SHRA BKN014 BKN020TCU
Pas de NOTAMs connus pour ce terrain.
1 SIGMET publié pour la FIR Bordeaux (LFBB) :
 
Turbulence forte
LFBB SIGMET 3 VALID 170000/170400 LFPW
LFBB BORDEAUX FIR/UIR SEV TURB FCST SE OF LINE N4330 E00245 - N4230 E00115 SFC/FL060 STNR NC=



MET'MAP, la Météo Aéronautique d'un coup d'oeil ! - Copyright ORBIFLY Décembre 2007 - Disclaimer

ORBIFLY MET'MAP TEAM :

Programmation & Développement : Alexandra Zaïnal
Conception & Développement : Baudouin d'Aumeries
Co-Programmation & Développement : Marc-Olivier Méhu
Soutien technique & logistique : Manuel Goepfert

Contact : metmap@orbifly.com




SOURCES & CREDITS :

   NOAA